createdAt,value
2017-11-10T00:02:02.140Z,21.57
2017-11-10T00:04:31.180Z,19.57
2017-11-10T00:06:59.428Z,20.90
2017-11-10T00:09:27.671Z,18.03
2017-11-10T00:11:55.943Z,19.93
2017-11-10T00:14:24.187Z,17.73
2017-11-10T00:16:52.434Z,17.30
2017-11-10T00:19:21.064Z,20.57
2017-11-10T00:21:49.311Z,23.30
2017-11-10T00:24:17.557Z,21.47
2017-11-10T00:26:46.595Z,20.93
2017-11-10T00:29:14.877Z,22.93
2017-11-10T00:31:43.120Z,21.53
2017-11-10T00:34:11.585Z,22.60
2017-11-10T00:36:39.823Z,23.07
2017-11-10T00:39:08.075Z,23.50
2017-11-10T00:41:36.875Z,25.43
2017-11-10T00:44:05.124Z,23.63
2017-11-10T00:46:33.371Z,26.63
2017-11-10T00:49:02.402Z,24.20
2017-11-10T00:51:31.847Z,20.60
2017-11-10T00:54:00.090Z,23.77
2017-11-10T00:56:28.479Z,23.90
2017-11-10T00:58:59.203Z,22.50
2017-11-10T01:01:27.448Z,22.27
2017-11-10T01:03:56.088Z,22.10
2017-11-10T01:06:24.326Z,22.23
2017-11-10T01:08:52.576Z,21.10
2017-11-10T01:11:20.839Z,25.77
2017-11-10T01:13:49.998Z,23.17
2017-11-10T01:16:18.242Z,26.40
2017-11-10T01:18:46.511Z,24.53
2017-11-10T01:21:15.522Z,24.10
2017-11-10T01:23:43.766Z,24.40
2017-11-10T01:26:12.298Z,26.50
2017-11-10T01:28:40.546Z,21.27
2017-11-10T01:31:08.791Z,22.70
2017-11-10T01:33:37.053Z,23.00
2017-11-10T01:36:05.567Z,24.20
2017-11-10T01:38:34.571Z,23.90
2017-11-10T01:41:03.009Z,25.57
2017-11-10T01:43:31.249Z,24.10
2017-11-10T01:45:59.498Z,25.80
2017-11-10T01:48:30.744Z,28.90
2017-11-10T01:50:59.758Z,27.83
2017-11-10T01:53:28.004Z,25.93
2017-11-10T01:55:56.275Z,29.70
2017-11-10T01:58:24.514Z,29.70
2017-11-10T02:00:52.759Z,28.77
2017-11-10T02:03:21.031Z,26.43
2017-11-10T02:05:49.270Z,31.40
2017-11-10T02:08:17.513Z,34.53
2017-11-10T02:10:46.205Z,35.00
2017-11-10T02:13:14.460Z,28.27
2017-11-10T02:15:42.691Z,34.13
2017-11-10T02:18:10.959Z,32.63
2017-11-10T02:20:39.207Z,31.00
2017-11-10T02:23:07.448Z,25.37
2017-11-10T02:25:35.716Z,27.90
2017-11-10T02:28:03.962Z,28.30
2017-11-10T02:30:32.211Z,27.03
2017-11-10T02:33:00.696Z,30.90
2017-11-10T02:35:28.954Z,29.30
2017-11-10T02:37:57.438Z,30.23
2017-11-10T02:40:25.707Z,28.63
2017-11-10T02:42:53.951Z,28.43
2017-11-10T02:45:23.127Z,32.53
2017-11-10T02:47:51.395Z,26.93
2017-11-10T02:50:19.642Z,29.67
2017-11-10T02:52:47.887Z,30.73
2017-11-10T02:55:16.251Z,27.27
2017-11-10T02:57:44.501Z,22.20
2017-11-10T03:00:12.742Z,26.50
2017-11-10T03:02:41.018Z,28.17
2017-11-10T03:05:09.251Z,24.10
2017-11-10T03:07:37.504Z,30.80
2017-11-10T03:10:05.781Z,28.40
2017-11-10T03:12:34.024Z,29.07
2017-11-10T03:15:02.267Z,26.60
2017-11-10T03:17:30.647Z,26.53
2017-11-10T03:19:58.891Z,25.60
2017-11-10T03:22:27.432Z,26.07
2017-11-10T03:24:55.693Z,21.87
2017-11-10T03:27:24.712Z,23.27
2017-11-10T03:29:52.960Z,24.10
2017-11-10T03:32:21.228Z,25.63
2017-11-10T03:34:49.475Z,24.03
2017-11-10T03:37:17.716Z,25.30
2017-11-10T03:39:46.373Z,22.80
2017-11-10T03:42:14.619Z,22.67
2017-11-10T03:44:42.867Z,21.37
2017-11-10T03:47:11.139Z,23.33
2017-11-10T03:49:39.379Z,23.00
2017-11-10T03:52:07.622Z,22.50
2017-11-10T03:54:36.095Z,17.97
2017-11-10T03:57:04.335Z,20.10
2017-11-10T03:59:32.571Z,25.07
2017-11-10T04:02:01.109Z,22.10
2017-11-10T04:04:29.347Z,23.70
2017-11-10T04:06:57.603Z,21.53
2017-11-10T04:09:25.871Z,22.40
2017-11-10T04:11:54.121Z,19.63
2017-11-10T04:14:22.376Z,25.00
2017-11-10T04:16:50.636Z,22.53
2017-11-10T04:19:18.881Z,23.80
2017-11-10T04:21:47.124Z,24.63
2017-11-10T04:24:15.475Z,22.00
2017-11-10T04:26:43.947Z,21.60
2017-11-10T04:29:12.955Z,23.00
2017-11-10T04:31:41.230Z,20.00
2017-11-10T04:34:09.471Z,24.60
2017-11-10T04:36:37.719Z,24.00
2017-11-10T04:39:06.368Z,20.80
2017-11-10T04:41:34.650Z,25.30
2017-11-10T04:44:02.895Z,19.07
2017-11-10T04:46:32.556Z,21.93
2017-11-10T04:49:00.803Z,24.67
2017-11-10T04:51:29.079Z,20.20
2017-11-10T04:53:57.347Z,19.90
2017-11-10T04:56:25.590Z,31.37
2017-11-10T04:58:56.013Z,20.10
2017-11-10T05:01:24.280Z,21.20
2017-11-10T05:03:52.524Z,21.27
2017-11-10T05:06:20.769Z,23.07
2017-11-10T05:08:50.119Z,24.37
2017-11-10T05:11:18.366Z,21.23
2017-11-10T05:13:46.615Z,20.03
2017-11-10T05:16:14.894Z,17.80
2017-11-10T05:18:43.902Z,13.70
2017-11-10T05:21:12.911Z,26.30
2017-11-10T05:23:41.190Z,22.27
2017-11-10T05:26:09.615Z,22.40
2017-11-10T05:28:37.865Z,21.00
2017-11-10T05:31:06.187Z,22.53
2017-11-10T05:33:34.446Z,20.73
2017-11-10T05:36:02.691Z,25.23
2017-11-10T05:38:30.959Z,18.13
2017-11-10T05:40:59.205Z,21.47
2017-11-10T05:43:27.619Z,23.63
2017-11-10T05:45:55.886Z,32.53
2017-11-10T05:48:24.139Z,22.33
2017-11-10T05:50:53.155Z,29.43
2017-11-10T05:53:21.876Z,22.10
2017-11-10T05:55:50.223Z,24.57
2017-11-10T05:58:18.479Z,21.70
2017-11-10T06:00:46.752Z,24.33
2017-11-10T06:03:15.764Z,22.10
2017-11-10T06:05:44.016Z,23.20
2017-11-10T06:08:13.052Z,23.63
2017-11-10T06:10:41.291Z,21.17
2017-11-10T06:13:09.541Z,22.43
2017-11-10T06:15:38.200Z,23.20
2017-11-10T06:18:06.456Z,25.37
2017-11-10T06:20:34.704Z,22.40
2017-11-10T06:23:03.735Z,24.07
2017-11-10T06:25:31.984Z,21.53
2017-11-10T06:28:00.994Z,24.30
2017-11-10T06:30:29.267Z,25.97
2017-11-10T06:32:57.511Z,24.00
2017-11-10T06:35:25.755Z,26.90
2017-11-10T06:37:54.233Z,21.13
2017-11-10T06:40:22.475Z,23.63
2017-11-10T06:42:50.723Z,23.10
2017-11-10T06:45:19.348Z,22.43
2017-11-10T06:47:47.587Z,23.10
2017-11-10T06:50:15.829Z,24.93
2017-11-10T06:52:44.090Z,20.67
2017-11-10T06:55:12.345Z,25.77
2017-11-10T06:57:40.595Z,24.93
2017-11-10T07:00:09.719Z,24.30
2017-11-10T07:02:37.970Z,21.43
2017-11-10T07:05:06.978Z,18.60
2017-11-10T07:07:35.247Z,20.83
2017-11-10T07:10:03.490Z,21.00
2017-11-10T07:12:31.743Z,20.17
2017-11-10T07:15:00.016Z,17.33
2017-11-10T07:17:29.459Z,18.07
2017-11-10T07:19:57.715Z,20.30
2017-11-10T07:22:26.603Z,19.37
2017-11-10T07:24:54.831Z,18.77
2017-11-10T07:27:23.080Z,22.93
2017-11-10T07:29:51.683Z,23.87
2017-11-10T07:32:19.920Z,19.33
2017-11-10T07:34:48.160Z,17.80
2017-11-10T07:37:16.426Z,17.60
2017-11-10T07:39:44.675Z,19.43
2017-11-10T07:42:12.935Z,17.20
2017-11-10T07:44:41.387Z,22.10
2017-11-10T07:47:10.031Z,22.30
2017-11-10T07:49:39.048Z,24.10
2017-11-10T07:52:08.319Z,24.13
2017-11-10T07:54:37.343Z,18.87
2017-11-10T07:57:05.583Z,15.87
2017-11-10T07:59:33.864Z,19.20
2017-11-10T08:02:02.867Z,22.50
2017-11-10T08:04:31.875Z,23.83
2017-11-10T08:07:00.482Z,27.27
2017-11-10T08:09:28.730Z,22.60
2017-11-10T08:11:56.974Z,24.93
2017-11-10T08:14:25.244Z,26.37
2017-11-10T08:16:53.511Z,19.50
2017-11-10T08:19:21.751Z,25.10
2017-11-10T08:21:50.028Z,20.47
2017-11-10T08:24:18.275Z,17.93
2017-11-10T08:26:46.531Z,19.43
2017-11-10T08:29:15.279Z,21.57
2017-11-10T08:31:43.523Z,20.93
2017-11-10T08:34:11.763Z,19.63
2017-11-10T08:36:40.035Z,21.00
2017-11-10T08:39:08.287Z,15.30
2017-11-10T08:41:36.531Z,15.60
2017-11-10T08:44:05.559Z,14.87
2017-11-10T08:46:33.811Z,18.70
2017-11-10T08:49:02.583Z,16.90
2017-11-10T08:51:32.229Z,13.10
2017-11-10T08:54:00.466Z,13.87
2017-11-10T08:56:28.720Z,15.63
2017-11-10T08:58:56.992Z,15.60
2017-11-10T09:01:25.237Z,16.97
2017-11-10T09:03:53.487Z,19.70
2017-11-10T09:06:21.751Z,18.57
2017-11-10T09:08:50.005Z,16.30
2017-11-10T09:11:18.264Z,18.40
2017-11-10T09:13:46.741Z,17.47
2017-11-10T09:16:14.983Z,17.37
2017-11-10T09:18:43.235Z,16.77
2017-11-10T09:21:11.504Z,16.50
2017-11-10T09:23:40.519Z,17.03
2017-11-10T09:26:08.763Z,16.00
2017-11-10T09:32:05.608Z,17.70
2017-11-10T09:34:45.603Z,16.50
2017-11-10T09:37:33.407Z,14.33
2017-11-10T09:40:16.195Z,13.87
2017-11-10T09:42:50.090Z,16.30
2017-11-10T09:45:35.514Z,14.90
2017-11-10T09:48:21.579Z,15.63
2017-11-10T09:50:55.411Z,12.43
2017-11-10T09:53:44.358Z,14.77
2017-11-10T09:56:17.124Z,13.20
2017-11-10T09:58:47.892Z,14.50
2017-11-10T10:01:32.866Z,14.57
2017-11-10T10:04:02.599Z,12.20
2017-11-10T10:06:50.535Z,12.30
2017-11-10T10:09:23.446Z,11.80
2017-11-10T10:11:57.275Z,8.53
2017-11-10T10:14:31.175Z,12.27
2017-11-10T10:17:05.201Z,12.20
2017-11-10T10:19:39.034Z,11.40
2017-11-10T10:22:09.224Z,14.53
2017-11-10T10:24:37.467Z,8.93
2017-11-10T10:27:05.702Z,11.00
2017-11-10T10:29:35.128Z,14.43
2017-11-10T10:32:04.148Z,13.00
2017-11-10T10:34:32.400Z,15.77
2017-11-10T10:37:01.243Z,13.20
2017-11-10T10:39:29.488Z,14.97
2017-11-10T10:41:57.735Z,14.97
2017-11-10T10:44:26.004Z,11.47
2017-11-10T10:46:54.250Z,14.00
2017-11-10T10:49:22.495Z,12.13
2017-11-10T10:51:51.178Z,16.13
2017-11-10T10:54:19.423Z,12.50
2017-11-10T10:56:47.672Z,15.90
2017-11-10T10:59:16.336Z,13.93
2017-11-10T11:01:44.583Z,13.53
2017-11-10T11:04:12.836Z,18.53
2017-11-10T11:06:41.100Z,18.53
2017-11-10T11:09:09.343Z,11.70
2017-11-10T11:11:37.598Z,14.97
2017-11-10T11:14:05.867Z,15.40
2017-11-10T11:16:34.112Z,13.43
2017-11-10T11:19:02.365Z,17.13
2017-11-10T11:21:31.134Z,14.17
2017-11-10T11:23:59.382Z,15.63
2017-11-10T11:26:27.627Z,14.23
2017-11-10T11:28:55.947Z,13.90
2017-11-10T11:31:24.199Z,10.70
2017-11-10T11:33:52.540Z,15.50
2017-11-10T11:36:20.790Z,11.87
2017-11-10T11:38:49.023Z,11.13
2017-11-10T11:41:17.275Z,10.57
2017-11-10T11:43:45.612Z,13.30
2017-11-10T11:46:13.841Z,14.43
2017-11-10T11:48:42.121Z,12.23
2017-11-10T11:51:10.375Z,11.50
2017-11-10T11:53:39.045Z,11.87
2017-11-10T11:56:07.283Z,14.97
2017-11-10T11:58:35.555Z,12.33
2017-11-10T12:01:04.590Z,13.00
2017-11-10T12:03:32.823Z,9.63
2017-11-10T12:06:01.134Z,16.53
2017-11-10T12:08:29.379Z,8.80
2017-11-10T12:10:58.379Z,14.10
2017-11-10T12:13:26.656Z,14.27
2017-11-10T12:15:54.916Z,13.83
2017-11-10T12:18:23.143Z,11.90
2017-11-10T12:20:51.399Z,9.80
2017-11-10T12:23:19.699Z,15.63
2017-11-10T12:25:47.958Z,10.00
2017-11-10T12:28:16.559Z,10.33
2017-11-10T12:30:44.812Z,11.57
2017-11-10T12:33:13.043Z,9.70
2017-11-10T12:35:41.301Z,13.97
2017-11-10T12:38:09.543Z,14.47
2017-11-10T12:40:37.791Z,17.00
2017-11-10T12:43:06.821Z,11.10
2017-11-10T12:45:35.170Z,10.10
2017-11-10T12:48:03.395Z,12.27
2017-11-10T12:50:31.865Z,13.67
2017-11-10T12:53:00.102Z,10.53
2017-11-10T12:55:28.687Z,11.07
2017-11-10T12:57:56.962Z,11.27
2017-11-10T13:00:25.963Z,9.80
2017-11-10T13:02:54.972Z,11.17
2017-11-10T13:05:23.324Z,10.10
2017-11-10T13:07:52.327Z,9.63
2017-11-10T13:10:21.484Z,8.30
2017-11-10T13:12:49.868Z,8.73
2017-11-10T13:15:18.111Z,8.47
2017-11-10T13:17:46.351Z,8.20
2017-11-10T13:20:14.615Z,12.10
2017-11-10T13:22:42.880Z,8.27
2017-11-10T13:25:11.094Z,10.33
2017-11-10T13:27:39.371Z,8.23
2017-11-10T13:30:08.359Z,10.13
2017-11-10T13:32:37.376Z,12.30
2017-11-10T13:35:06.067Z,10.30
2017-11-10T13:37:34.303Z,8.27
2017-11-10T13:40:02.536Z,7.93
2017-11-10T13:42:30.796Z,7.37
2017-11-10T13:44:59.027Z,5.87
2017-11-10T13:47:27.259Z,6.90
2017-11-10T13:49:55.515Z,8.40
2017-11-10T13:52:23.751Z,6.87
2017-11-10T13:54:51.988Z,6.73
2017-11-10T13:57:20.563Z,6.70
2017-11-10T13:59:48.797Z,7.73
2017-11-10T14:02:17.034Z,5.23
2017-11-10T14:04:45.356Z,6.17
2017-11-10T14:07:14.369Z,5.40
2017-11-10T14:09:42.602Z,4.60
2017-11-10T14:12:11.199Z,5.23
2017-11-10T14:14:39.431Z,4.30
2017-11-10T14:17:07.669Z,5.80
2017-11-10T14:19:36.409Z,4.20
2017-11-10T14:22:04.675Z,6.00
2017-11-10T14:24:32.928Z,5.97
2017-11-10T14:27:01.172Z,5.50
2017-11-10T14:29:29.410Z,7.87
2017-11-10T14:31:57.642Z,6.50
2017-11-10T14:34:25.904Z,5.00
2017-11-10T14:36:54.919Z,6.13
2017-11-10T14:39:23.156Z,6.90
2017-11-10T14:41:51.715Z,4.73
2017-11-10T14:44:19.951Z,6.17
2017-11-10T14:46:48.175Z,9.20
2017-11-10T14:49:16.827Z,4.07
2017-11-10T14:51:45.137Z,6.27
2017-11-10T14:54:13.368Z,6.70
2017-11-10T14:56:41.620Z,3.80
2017-11-10T14:59:10.919Z,6.50
2017-11-10T15:01:39.919Z,5.57
2017-11-10T15:04:09.562Z,4.57
2017-11-10T15:06:37.804Z,3.33
2017-11-10T15:09:06.041Z,3.67
2017-11-10T15:11:34.291Z,9.10
2017-11-10T15:14:02.559Z,4.10
2017-11-10T15:16:30.796Z,4.47
2017-11-10T15:18:59.115Z,5.10
2017-11-10T15:21:27.731Z,3.20
2017-11-10T15:23:57.339Z,5.17
2017-11-10T15:26:26.216Z,6.60
2017-11-10T15:28:56.666Z,5.07
2017-11-10T15:31:25.082Z,5.67
2017-11-10T15:33:54.231Z,6.47
2017-11-10T15:36:23.651Z,5.33
2017-11-10T15:38:51.918Z,5.67
2017-11-10T15:41:20.267Z,4.97
2017-11-10T15:43:48.504Z,4.37
2017-11-10T15:46:17.515Z,4.80
2017-11-10T15:48:46.651Z,3.63
2017-11-10T15:51:16.063Z,3.77
2017-11-10T15:53:44.306Z,4.40
2017-11-10T15:56:12.575Z,3.80
2017-11-10T15:58:40.810Z,3.77
2017-11-10T16:01:09.066Z,3.37
2017-11-10T16:03:37.725Z,3.80
2017-11-10T16:06:06.027Z,2.90
2017-11-10T16:08:34.283Z,6.73
2017-11-10T16:11:03.951Z,3.40
2017-11-10T16:13:32.191Z,4.10
2017-11-10T16:16:02.623Z,2.80
2017-11-10T16:18:30.903Z,3.43
2017-11-10T16:20:59.189Z,6.13
2017-11-10T16:23:27.428Z,2.90
2017-11-10T16:25:55.872Z,3.30
2017-11-10T16:28:25.028Z,3.77
2017-11-10T16:30:53.251Z,3.20
2017-11-10T16:33:22.340Z,3.97
2017-11-10T16:35:50.570Z,4.47
2017-11-10T16:38:18.809Z,2.80
2017-11-10T16:40:47.421Z,3.13
2017-11-10T16:43:15.672Z,2.80
2017-11-10T16:45:44.119Z,3.43
2017-11-10T16:48:12.377Z,3.73
2017-11-10T16:50:40.611Z,2.50
2017-11-10T16:53:08.854Z,3.00
2017-11-10T16:55:37.179Z,2.80
2017-11-10T16:58:06.645Z,3.33
2017-11-10T17:00:35.951Z,2.83
2017-11-10T17:03:05.007Z,1.93
2017-11-10T17:05:33.246Z,3.00
2017-11-10T17:08:01.495Z,7.00
2017-11-10T17:10:29.763Z,1.87
2017-11-10T17:12:58.778Z,2.67
2017-11-10T17:15:27.023Z,3.00
2017-11-10T17:17:55.881Z,2.47
2017-11-10T17:20:24.115Z,2.00
2017-11-10T17:22:52.419Z,3.10
2017-11-10T17:25:21.873Z,4.13
2017-11-10T17:27:50.254Z,2.40
2017-11-10T17:30:18.504Z,2.70
2017-11-10T17:32:46.754Z,2.43
2017-11-10T17:35:15.005Z,3.13
2017-11-10T17:37:43.234Z,2.57
2017-11-10T17:40:11.895Z,1.50
2017-11-10T17:42:40.184Z,3.90
2017-11-10T17:45:08.571Z,2.20
2017-11-10T17:47:36.972Z,2.47
2017-11-10T17:50:05.223Z,4.07
2017-11-10T17:52:33.452Z,2.17
2017-11-10T17:55:02.789Z,4.27
2017-11-10T17:57:31.044Z,3.33
2017-11-10T17:59:59.283Z,3.60
2017-11-10T18:02:27.952Z,3.53
2017-11-10T18:04:56.187Z,3.33
2017-11-10T18:07:24.436Z,3.60
2017-11-10T18:09:52.700Z,14.43
2017-11-10T18:12:20.944Z,8.37
2017-11-10T18:14:49.179Z,4.20
2017-11-10T18:17:18.464Z,3.93
2017-11-10T18:19:47.492Z,4.07
2017-11-10T18:22:15.734Z,4.60
2017-11-10T18:24:44.607Z,4.40
2017-11-10T18:27:13.052Z,3.07
2017-11-10T18:29:41.283Z,3.63
2017-11-10T18:32:10.314Z,4.70
2017-11-10T18:34:38.560Z,4.67
2017-11-10T18:37:06.805Z,3.50
2017-11-10T18:39:35.314Z,3.83
2017-11-10T18:42:03.849Z,3.80
2017-11-10T18:44:32.067Z,3.23
2017-11-10T18:47:00.591Z,4.50
2017-11-10T18:49:31.506Z,4.50
2017-11-10T18:52:01.931Z,5.30
2017-11-10T18:54:32.955Z,5.00
2017-11-10T18:57:01.960Z,5.70
2017-11-10T18:59:30.435Z,5.60
2017-11-10T19:01:59.443Z,4.70
2017-11-10T19:04:27.682Z,4.63
2017-11-10T19:06:56.533Z,5.63
2017-11-10T19:09:24.779Z,3.60
2017-11-10T19:11:53.223Z,2.83
2017-11-10T19:14:21.569Z,4.33
2017-11-10T19:16:49.831Z,3.73
2017-11-10T19:19:18.081Z,4.90
2017-11-10T19:21:47.241Z,2.67
2017-11-10T19:24:15.471Z,3.30
2017-11-10T19:26:45.644Z,2.70
2017-11-10T19:29:14.160Z,2.23
2017-11-10T19:31:42.403Z,2.83
2017-11-10T19:34:10.784Z,3.83
2017-11-10T19:36:39.059Z,3.60
2017-11-10T19:39:07.291Z,2.70
2017-11-10T19:41:35.539Z,3.13
2017-11-10T19:44:04.296Z,2.53
2017-11-10T19:46:32.589Z,6.10
2017-11-10T19:49:01.044Z,3.83
2017-11-10T19:51:29.814Z,2.50
2017-11-10T19:53:58.120Z,1.77
2017-11-10T19:56:27.436Z,1.97
2017-11-10T19:58:55.688Z,2.50
2017-11-10T20:01:23.950Z,2.53
2017-11-10T20:03:52.452Z,2.30
2017-11-10T20:06:20.828Z,7.73
2017-11-10T20:08:51.169Z,1.97
2017-11-10T20:11:19.439Z,4.57
2017-11-10T20:13:48.003Z,2.47
2017-11-10T20:16:16.251Z,3.60
2017-11-10T20:18:44.489Z,2.47
2017-11-10T20:21:13.133Z,3.00
2017-11-10T20:23:41.407Z,7.77
2017-11-10T20:26:09.642Z,2.70
2017-11-10T20:28:37.939Z,3.00
2017-11-10T20:31:06.934Z,3.10
2017-11-10T20:33:35.190Z,3.63
2017-11-10T20:36:03.495Z,5.73
2017-11-10T20:38:31.743Z,3.20
2017-11-10T20:41:00.775Z,5.27
2017-11-10T20:43:29.040Z,6.10
2017-11-10T20:45:57.350Z,3.03
2017-11-10T20:48:25.567Z,3.77
2017-11-10T20:50:54.723Z,3.03
2017-11-10T20:53:22.968Z,8.03
2017-11-10T20:55:51.215Z,8.73
2017-11-10T20:58:20.030Z,6.80
2017-11-10T21:00:48.272Z,5.70
2017-11-10T21:03:16.499Z,5.63
2017-11-10T21:05:44.940Z,7.70
2017-11-10T21:08:13.940Z,4.03
2017-11-10T21:10:42.942Z,6.90
2017-11-10T21:13:11.203Z,5.03
2017-11-10T21:15:40.213Z,10.40
2017-11-10T21:18:08.463Z,3.43
2017-11-10T21:20:36.923Z,5.70
2017-11-10T21:23:05.143Z,11.33
2017-11-10T21:25:33.383Z,9.10
2017-11-10T21:28:01.647Z,8.37
2017-11-10T21:30:29.890Z,5.90
2017-11-10T21:32:58.126Z,5.33
2017-11-10T21:35:27.087Z,10.00
2017-11-10T21:37:55.373Z,7.67
2017-11-10T21:40:23.606Z,8.27
2017-11-10T21:42:52.412Z,8.60
2017-11-10T21:45:20.703Z,4.70
2017-11-10T21:47:48.947Z,5.93
2017-11-10T21:50:17.199Z,5.47
2017-11-10T21:52:46.204Z,6.43
2017-11-10T21:55:15.207Z,5.20
2017-11-10T21:57:43.463Z,5.37
2017-11-10T22:00:11.703Z,15.70
2017-11-10T22:02:39.975Z,11.63
2017-11-10T22:05:08.397Z,4.53
2017-11-10T22:07:37.695Z,4.53
2017-11-10T22:10:06.692Z,6.20
2017-11-10T22:12:36.049Z,10.30
2017-11-10T22:15:04.267Z,5.60
2017-11-10T22:17:32.507Z,8.80
2017-11-10T22:20:00.768Z,5.63
2017-11-10T22:22:29.008Z,8.70
2017-11-10T22:24:57.266Z,7.23
2017-11-10T22:27:25.999Z,12.50
2017-11-10T22:29:54.253Z,17.00
2017-11-10T22:32:22.480Z,8.43
2017-11-10T22:34:50.730Z,6.93
2017-11-10T22:37:18.967Z,14.43
2017-11-10T22:39:47.975Z,6.27
2017-11-10T22:42:16.231Z,8.10
2017-11-10T22:44:45.238Z,11.50
2017-11-10T22:47:14.246Z,6.90
2017-11-10T22:49:43.072Z,4.50
2017-11-10T22:52:11.324Z,9.73
2017-11-10T22:54:39.554Z,10.00
2017-11-10T22:57:07.817Z,14.37
2017-11-10T22:59:36.055Z,11.60
2017-11-10T23:02:04.300Z,11.77
2017-11-10T23:04:32.602Z,10.37
2017-11-10T23:07:00.830Z,11.57
2017-11-10T23:09:29.210Z,7.60
2017-11-10T23:11:57.759Z,7.90
2017-11-10T23:14:26.030Z,3.33
2017-11-10T23:16:54.267Z,6.53
2017-11-10T23:19:22.531Z,5.40
2017-11-10T23:21:51.779Z,9.87
2017-11-10T23:24:20.058Z,7.83
2017-11-10T23:26:48.568Z,9.07
2017-11-10T23:29:16.809Z,11.87
2017-11-10T23:31:45.065Z,11.80
2017-11-10T23:34:13.779Z,15.27
2017-11-10T23:36:42.016Z,6.97
2017-11-10T23:39:10.269Z,8.17
2017-11-10T23:41:38.571Z,11.00
2017-11-10T23:44:07.580Z,16.33
2017-11-10T23:46:35.845Z,7.93
2017-11-10T23:49:04.111Z,11.13
2017-11-10T23:51:32.359Z,17.10
2017-11-10T23:54:00.602Z,12.03
2017-11-10T23:56:29.188Z,8.37
2017-11-10T23:58:57.427Z,13.80
